Haworth, NJ

10:08 PM EST on December 10, 2016 (GMT -0500)
| | Change Station

Elev -9999 ft 0.00 °N, 0.00 °E | Updated 3 minutes ago

Clear
Clear
77 °F
Feels Like 77 °F
N
7
Wind Variable Wind from South
Gusts 12 mph

Today
High -- | Low -- °F
--% Chance of Precip.
Yesterday
High -- | Low -- °F
Precip. -- in
Pressure 30.45 in
Visibility 10.0 miles
Clouds Clear
Dew Point 51 °F
Humidity 40%
Rainfall --
Snow Depth Not available.
7:10 AM 4:27 PM
Waxing Gibbous, 88% visible
METAR KTEB 110251Z 00000KT 10SM CLR M02/M08 A3045 RMK AO2 SLP309 T10171078 51009
Pressure 30.45 in
Visibility 10.0 miles
Clouds Clear
Dew Point 51 °F
Humidity 40%
Rainfall --
Snow Depth Not available.
7:10 AM 4:27 PM
Waxing Gibbous, 88% visible
METAR KTEB 110251Z 00000KT 10SM CLR M02/M08 A3045 RMK AO2 SLP309 T10171078 51009

10-Day Weather Forecast

Almanac

Astronomy

Dec. 10, 2016 Rise Set
Actual Time
Civil Twilight
Nautical Twilight
Astronomical Twilight
Moon
Length of Visible Light
Length of Day
Tomorrow will be .
, % of the Moon is Illuminated

Today's Extremes

State Highs State Lows

Community

WunderPhotos

Upload Photos

1,956,692 photos uploaded!

WunderBlog® & News

Nearby

Air Quality

  Air Quality AQ Index Pollutant
Not available.

Snow Depth

Station Depth Elevation

Earthquake Activity

City Distance Mag. Time & Date
Minimum magnitude displayed is 2.5.

Coastal Water Temperatures

Place Temperature

Stations

Nearby Weather Stations

Station Location Temp. Windchill Dew Point Humidity Wind Precip. Elev Updated Type
                   

Watches & Warnings

There are currently no watches in effect.